sensor_id;sensor_type;location;lat;lon;timestamp;temperature;humidity
79244;SHT31;68672;42.676;23.356;2023-04-10T00:02:15;9.20;61.62
79244;SHT31;68672;42.676;23.356;2023-04-10T00:04:40;9.20;61.57
79244;SHT31;68672;42.676;23.356;2023-04-10T00:07:06;9.21;61.57
79244;SHT31;68672;42.676;23.356;2023-04-10T00:09:31;9.27;61.44
79244;SHT31;68672;42.676;23.356;2023-04-10T00:11:56;9.30;61.36
79244;SHT31;68672;42.676;23.356;2023-04-10T00:14:22;9.34;61.08
79244;SHT31;68672;42.676;23.356;2023-04-10T00:16:49;9.34;60.44
79244;SHT31;68672;42.676;23.356;2023-04-10T00:19:15;9.34;59.08
79244;SHT31;68672;42.676;23.356;2023-04-10T00:21:40;9.28;58.03
79244;SHT31;68672;42.676;23.356;2023-04-10T00:24:06;9.28;57.38
79244;SHT31;68672;42.676;23.356;2023-04-10T00:26:33;9.25;55.50
79244;SHT31;68672;42.676;23.356;2023-04-10T00:28:58;9.23;54.28
79244;SHT31;68672;42.676;23.356;2023-04-10T00:31:29;9.15;53.02
79244;SHT31;68672;42.676;23.356;2023-04-10T00:33:54;9.10;53.00
79244;SHT31;68672;42.676;23.356;2023-04-10T00:36:20;9.15;52.30
79244;SHT31;68672;42.676;23.356;2023-04-10T00:38:46;9.14;51.39
79244;SHT31;68672;42.676;23.356;2023-04-10T00:41:11;9.15;51.76
79244;SHT31;68672;42.676;23.356;2023-04-10T00:43:37;9.17;51.87
79244;SHT31;68672;42.676;23.356;2023-04-10T00:46:03;9.17;51.87
79244;SHT31;68672;42.676;23.356;2023-04-10T00:48:29;9.15;52.07
79244;SHT31;68672;42.676;23.356;2023-04-10T00:50:54;9.20;51.67
79244;SHT31;68672;42.676;23.356;2023-04-10T00:53:20;9.17;51.99
79244;SHT31;68672;42.676;23.356;2023-04-10T00:55:46;9.20;52.34
79244;SHT31;68672;42.676;23.356;2023-04-10T00:58:12;9.21;52.95
79244;SHT31;68672;42.676;23.356;2023-04-10T01:00:39;9.24;53.44
79244;SHT31;68672;42.676;23.356;2023-04-10T01:03:05;9.28;55.32
79244;SHT31;68672;42.676;23.356;2023-04-10T01:05:34;9.30;56.68
79244;SHT31;68672;42.676;23.356;2023-04-10T01:10:41;9.31;58.56
79244;SHT31;68672;42.676;23.356;2023-04-10T01:13:22;9.35;59.15
79244;SHT31;68672;42.676;23.356;2023-04-10T01:18:33;9.39;59.80
79244;SHT31;68672;42.676;23.356;2023-04-10T01:21:02;9.41;60.42
79244;SHT31;68672;42.676;23.356;2023-04-10T01:26:41;9.38;61.07
79244;SHT31;68672;42.676;23.356;2023-04-10T01:29:19;9.42;61.43
79244;SHT31;68672;42.676;23.356;2023-04-10T01:34:19;9.36;61.98
79244;SHT31;68672;42.676;23.356;2023-04-10T01:37:00;9.35;62.19
79244;SHT31;68672;42.676;23.356;2023-04-10T01:39:26;9.28;62.21
79244;SHT31;68672;42.676;23.356;2023-04-10T01:41:53;9.18;62.42
79244;SHT31;68672;42.676;23.356;2023-04-10T01:44:23;9.18;62.37
79244;SHT31;68672;42.676;23.356;2023-04-10T01:46:52;9.20;62.28
79244;SHT31;68672;42.676;23.356;2023-04-10T01:49:19;9.25;62.01
79244;SHT31;68672;42.676;23.356;2023-04-10T01:51:46;9.27;62.09
79244;SHT31;68672;42.676;23.356;2023-04-10T01:54:16;9.31;62.09
79244;SHT31;68672;42.676;23.356;2023-04-10T01:56:42;9.34;62.04
79244;SHT31;68672;42.676;23.356;2023-04-10T01:59:08;9.36;61.85
79244;SHT31;68672;42.676;23.356;2023-04-10T02:01:33;9.39;61.38
79244;SHT31;68672;42.676;23.356;2023-04-10T02:03:59;9.42;60.98
79244;SHT31;68672;42.676;23.356;2023-04-10T02:06:39;9.45;60.76
79244;SHT31;68672;42.676;23.356;2023-04-10T02:12:05;9.52;60.38
79244;SHT31;68672;42.676;23.356;2023-04-10T02:14:33;9.54;60.19
79244;SHT31;68672;42.676;23.356;2023-04-10T02:17:01;9.56;59.98
79244;SHT31;68672;42.676;23.356;2023-04-10T02:19:27;9.55;59.37
79244;SHT31;68672;42.676;23.356;2023-04-10T02:21:56;9.55;58.97
79244;SHT31;68672;42.676;23.356;2023-04-10T02:24:23;9.52;57.66
79244;SHT31;68672;42.676;23.356;2023-04-10T02:26:54;9.39;57.83
79244;SHT31;68672;42.676;23.356;2023-04-10T02:29:20;9.34;57.13
79244;SHT31;68672;42.676;23.356;2023-04-10T02:31:49;9.25;57.74
79244;SHT31;68672;42.676;23.356;2023-04-10T02:34:14;9.21;57.97
79244;SHT31;68672;42.676;23.356;2023-04-10T02:36:40;9.18;57.59
79244;SHT31;68672;42.676;23.356;2023-04-10T02:39:06;9.14;57.84
79244;SHT31;68672;42.676;23.356;2023-04-10T02:41:32;9.11;58.07
79244;SHT31;68672;42.676;23.356;2023-04-10T02:43:57;9.13;58.17
79244;SHT31;68672;42.676;23.356;2023-04-10T02:46:23;9.14;58.15
79244;SHT31;68672;42.676;23.356;2023-04-10T02:48:49;9.14;58.47
79244;SHT31;68672;42.676;23.356;2023-04-10T02:51:14;9.17;58.65
79244;SHT31;68672;42.676;23.356;2023-04-10T02:53:40;9.17;58.70
79244;SHT31;68672;42.676;23.356;2023-04-10T02:56:05;9.23;59.01
79244;SHT31;68672;42.676;23.356;2023-04-10T02:58:32;9.23;59.13
79244;SHT31;68672;42.676;23.356;2023-04-10T03:00:58;9.23;59.32
79244;SHT31;68672;42.676;23.356;2023-04-10T03:03:23;9.23;59.35
79244;SHT31;68672;42.676;23.356;2023-04-10T03:05:49;9.18;59.32
79244;SHT31;68672;42.676;23.356;2023-04-10T03:08:16;9.18;59.37
79244;SHT31;68672;42.676;23.356;2023-04-10T03:10:45;9.11;59.53
79244;SHT31;68672;42.676;23.356;2023-04-10T03:13:13;9.13;59.56
79244;SHT31;68672;42.676;23.356;2023-04-10T03:15:38;9.14;59.62
79244;SHT31;68672;42.676;23.356;2023-04-10T03:18:04;9.13;59.86
79244;SHT31;68672;42.676;23.356;2023-04-10T03:20:31;9.10;60.07
79244;SHT31;68672;42.676;23.356;2023-04-10T03:22:59;9.07;60.44
79244;SHT31;68672;42.676;23.356;2023-04-10T03:25:25;9.05;60.52
79244;SHT31;68672;42.676;23.356;2023-04-10T03:27:53;8.97;60.71
79244;SHT31;68672;42.676;23.356;2023-04-10T03:30:18;8.90;60.94
79244;SHT31;68672;42.676;23.356;2023-04-10T03:32:44;8.83;61.00
79244;SHT31;68672;42.676;23.356;2023-04-10T03:35:10;8.79;61.21
79244;SHT31;68672;42.676;23.356;2023-04-10T03:37:36;8.73;61.51
79244;SHT31;68672;42.676;23.356;2023-04-10T03:40:06;8.66;61.75
79244;SHT31;68672;42.676;23.356;2023-04-10T03:42:31;8.60;61.89
79244;SHT31;68672;42.676;23.356;2023-04-10T03:44:57;8.50;62.23
79244;SHT31;68672;42.676;23.356;2023-04-10T03:47:22;8.45;62.33
79244;SHT31;68672;42.676;23.356;2023-04-10T03:49:47;8.44;62.48
79244;SHT31;68672;42.676;23.356;2023-04-10T03:52:13;8.38;62.71
79244;SHT31;68672;42.676;23.356;2023-04-10T03:54:38;8.36;62.91
79244;SHT31;68672;42.676;23.356;2023-04-10T03:57:04;8.32;63.23
79244;SHT31;68672;42.676;23.356;2023-04-10T03:59:30;8.31;63.50
79244;SHT31;68672;42.676;23.356;2023-04-10T04:01:55;8.25;63.62
79244;SHT31;68672;42.676;23.356;2023-04-10T04:04:21;8.25;63.83
79244;SHT31;68672;42.676;23.356;2023-04-10T04:06:47;8.22;63.98
79244;SHT31;68672;42.676;23.356;2023-04-10T04:09:12;8.28;64.06
79244;SHT31;68672;42.676;23.356;2023-04-10T04:11:38;8.29;64.25
79244;SHT31;68672;42.676;23.356;2023-04-10T04:14:06;8.31;64.24
79244;SHT31;68672;42.676;23.356;2023-04-10T04:16:31;8.34;64.26
79244;SHT31;68672;42.676;23.356;2023-04-10T04:18:57;8.38;64.22
79244;SHT31;68672;42.676;23.356;2023-04-10T04:21:22;8.42;64.13
79244;SHT31;68672;42.676;23.356;2023-04-10T04:23:48;8.50;63.99
79244;SHT31;68672;42.676;23.356;2023-04-10T04:26:13;8.52;63.91
79244;SHT31;68672;42.676;23.356;2023-04-10T04:28:39;8.57;63.96
79244;SHT31;68672;42.676;23.356;2023-04-10T04:31:04;8.63;63.96
79244;SHT31;68672;42.676;23.356;2023-04-10T04:33:30;8.69;63.75
79244;SHT31;68672;42.676;23.356;2023-04-10T04:35:56;8.73;63.59
79244;SHT31;68672;42.676;23.356;2023-04-10T04:38:21;8.80;63.57
79244;SHT31;68672;42.676;23.356;2023-04-10T04:40:48;8.87;63.64
79244;SHT31;68672;42.676;23.356;2023-04-10T04:43:13;8.91;63.54
79244;SHT31;68672;42.676;23.356;2023-04-10T04:45:39;8.96;63.47
79244;SHT31;68672;42.676;23.356;2023-04-10T04:48:07;8.97;63.49
79244;SHT31;68672;42.676;23.356;2023-04-10T04:50:33;8.99;63.37
79244;SHT31;68672;42.676;23.356;2023-04-10T04:52:58;8.99;63.22
79244;SHT31;68672;42.676;23.356;2023-04-10T04:55:27;8.99;63.31
79244;SHT31;68672;42.676;23.356;2023-04-10T04:57:53;9.00;63.36
79244;SHT31;68672;42.676;23.356;2023-04-10T05:00:18;9.00;63.61
79244;SHT31;68672;42.676;23.356;2023-04-10T05:02:46;9.00;63.38
79244;SHT31;68672;42.676;23.356;2023-04-10T05:05:12;9.03;63.25
79244;SHT31;68672;42.676;23.356;2023-04-10T05:07:37;9.03;63.15
79244;SHT31;68672;42.676;23.356;2023-04-10T05:10:03;9.04;63.28
79244;SHT31;68672;42.676;23.356;2023-04-10T05:12:28;9.00;63.44
79244;SHT31;68672;42.676;23.356;2023-04-10T05:14:55;8.97;63.52
79244;SHT31;68672;42.676;23.356;2023-04-10T05:17:20;9.00;63.65
79244;SHT31;68672;42.676;23.356;2023-04-10T05:19:46;9.05;63.60
79244;SHT31;68672;42.676;23.356;2023-04-10T05:22:11;9.07;63.43
79244;SHT31;68672;42.676;23.356;2023-04-10T05:24:37;9.15;62.85
79244;SHT31;68672;42.676;23.356;2023-04-10T05:27:02;9.15;62.15
79244;SHT31;68672;42.676;23.356;2023-04-10T05:29:30;9.18;61.51
79244;SHT31;68672;42.676;23.356;2023-04-10T05:31:56;9.14;61.25
79244;SHT31;68672;42.676;23.356;2023-04-10T05:34:21;9.20;60.63
79244;SHT31;68672;42.676;23.356;2023-04-10T05:36:47;9.23;60.64
79244;SHT31;68672;42.676;23.356;2023-04-10T05:39:12;9.25;60.81
79244;SHT31;68672;42.676;23.356;2023-04-10T05:41:37;9.32;59.47
79244;SHT31;68672;42.676;23.356;2023-04-10T05:44:03;9.36;59.18
79244;SHT31;68672;42.676;23.356;2023-04-10T05:46:31;9.45;59.19
79244;SHT31;68672;42.676;23.356;2023-04-10T05:49:00;9.49;58.82
79244;SHT31;68672;42.676;23.356;2023-04-10T05:51:29;9.58;58.56
79244;SHT31;68672;42.676;23.356;2023-04-10T05:53:55;9.68;58.08
79244;SHT31;68672;42.676;23.356;2023-04-10T05:56:20;9.76;57.84
79244;SHT31;68672;42.676;23.356;2023-04-10T05:58:45;9.90;57.80
79244;SHT31;68672;42.676;23.356;2023-04-10T06:01:11;10.06;57.34
79244;SHT31;68672;42.676;23.356;2023-04-10T06:03:37;10.14;56.82
79244;SHT31;68672;42.676;23.356;2023-04-10T06:06:03;10.18;56.57
79244;SHT31;68672;42.676;23.356;2023-04-10T06:08:31;10.23;56.78
79244;SHT31;68672;42.676;23.356;2023-04-10T06:10:56;10.34;56.31
79244;SHT31;68672;42.676;23.356;2023-04-10T06:13:24;10.38;56.01
79244;SHT31;68672;42.676;23.356;2023-04-10T06:15:56;10.48;55.74
79244;SHT31;68672;42.676;23.356;2023-04-10T06:18:22;10.51;55.69
79244;SHT31;68672;42.676;23.356;2023-04-10T06:20:47;10.61;55.33
79244;SHT31;68672;42.676;23.356;2023-04-10T06:23:12;10.71;55.27
79244;SHT31;68672;42.676;23.356;2023-04-10T06:25:38;10.81;54.97
79244;SHT31;68672;42.676;23.356;2023-04-10T06:28:04;10.86;54.42
79244;SHT31;68672;42.676;23.356;2023-04-10T06:30:29;10.85;54.45
79244;SHT31;68672;42.676;23.356;2023-04-10T06:32:55;10.84;54.61
79244;SHT31;68672;42.676;23.356;2023-04-10T06:35:21;10.88;54.44
79244;SHT31;68672;42.676;23.356;2023-04-10T06:37:46;10.91;54.09
79244;SHT31;68672;42.676;23.356;2023-04-10T06:40:13;10.92;54.49
79244;SHT31;68672;42.676;23.356;2023-04-10T06:42:38;10.91;54.60
79244;SHT31;68672;42.676;23.356;2023-04-10T06:45:06;10.94;54.75
79244;SHT31;68672;42.676;23.356;2023-04-10T06:47:31;11.01;54.60
79244;SHT31;68672;42.676;23.356;2023-04-10T06:49:56;11.08;54.22
79244;SHT31;68672;42.676;23.356;2023-04-10T06:52:22;11.13;53.74
79244;SHT31;68672;42.676;23.356;2023-04-10T06:54:47;11.20;53.42
79244;SHT31;68672;42.676;23.356;2023-04-10T06:57:13;11.18;53.24
79244;SHT31;68672;42.676;23.356;2023-04-10T06:59:40;11.13;53.09
79244;SHT31;68672;42.676;23.356;2023-04-10T07:02:05;11.08;53.49
79244;SHT31;68672;42.676;23.356;2023-04-10T07:04:31;11.12;53.62
79244;SHT31;68672;42.676;23.356;2023-04-10T07:06:57;11.20;53.26
79244;SHT31;68672;42.676;23.356;2023-04-10T07:09:24;11.15;52.56
79244;SHT31;68672;42.676;23.356;2023-04-10T07:11:50;11.12;52.94
79244;SHT31;68672;42.676;23.356;2023-04-10T07:14:16;11.11;53.04
79244;SHT31;68672;42.676;23.356;2023-04-10T07:16:42;11.03;53.15
79244;SHT31;68672;42.676;23.356;2023-04-10T07:19:10;11.03;53.41
79244;SHT31;68672;42.676;23.356;2023-04-10T07:21:35;10.92;53.46
79244;SHT31;68672;42.676;23.356;2023-04-10T07:24:01;10.94;53.74
79244;SHT31;68672;42.676;23.356;2023-04-10T07:26:26;10.96;53.82
79244;SHT31;68672;42.676;23.356;2023-04-10T07:28:52;10.98;53.77
79244;SHT31;68672;42.676;23.356;2023-04-10T07:31:17;11.02;53.78
79244;SHT31;68672;42.676;23.356;2023-04-10T07:33:44;11.09;53.58
79244;SHT31;68672;42.676;23.356;2023-04-10T07:36:11;11.15;53.61
79244;SHT31;68672;42.676;23.356;2023-04-10T07:38:36;11.22;53.52
79244;SHT31;68672;42.676;23.356;2023-04-10T07:41:03;11.33;53.26
79244;SHT31;68672;42.676;23.356;2023-04-10T07:43:28;11.54;52.38
79244;SHT31;68672;42.676;23.356;2023-04-10T07:45:55;11.64;52.24
79244;SHT31;68672;42.676;23.356;2023-04-10T07:48:23;11.80;52.00
79244;SHT31;68672;42.676;23.356;2023-04-10T07:50:51;11.88;51.56
79244;SHT31;68672;42.676;23.356;2023-04-10T07:53:17;12.06;51.20
79244;SHT31;68672;42.676;23.356;2023-04-10T07:55:44;12.18;50.62
79244;SHT31;68672;42.676;23.356;2023-04-10T07:58:10;12.25;50.54
79244;SHT31;68672;42.676;23.356;2023-04-10T08:00:36;12.29;50.12
79244;SHT31;68672;42.676;23.356;2023-04-10T08:03:03;12.20;50.23
79244;SHT31;68672;42.676;23.356;2023-04-10T08:05:28;12.17;50.72
79244;SHT31;68672;42.676;23.356;2023-04-10T08:07:54;12.22;50.12
79244;SHT31;68672;42.676;23.356;2023-04-10T08:10:22;12.12;50.60
79244;SHT31;68672;42.676;23.356;2023-04-10T08:12:53;12.17;50.59
79244;SHT31;68672;42.676;23.356;2023-04-10T08:15:18;12.18;50.52
79244;SHT31;68672;42.676;23.356;2023-04-10T08:17:44;12.05;51.02
79244;SHT31;68672;42.676;23.356;2023-04-10T08:20:13;12.05;51.27
79244;SHT31;68672;42.676;23.356;2023-04-10T08:22:44;12.11;51.20
79244;SHT31;68672;42.676;23.356;2023-04-10T08:25:10;12.20;51.35
79244;SHT31;68672;42.676;23.356;2023-04-10T08:27:36;12.28;50.75
79244;SHT31;68672;42.676;23.356;2023-04-10T08:30:02;12.42;50.60
79244;SHT31;68672;42.676;23.356;2023-04-10T08:32:27;12.48;50.46
79244;SHT31;68672;42.676;23.356;2023-04-10T08:34:53;12.50;50.07
79244;SHT31;68672;42.676;23.356;2023-04-10T08:37:19;12.48;50.28
79244;SHT31;68672;42.676;23.356;2023-04-10T08:39:45;12.41;50.51
79244;SHT31;68672;42.676;23.356;2023-04-10T08:42:11;12.36;50.91
79244;SHT31;68672;42.676;23.356;2023-04-10T08:44:36;12.46;50.99
79244;SHT31;68672;42.676;23.356;2023-04-10T08:47:04;12.56;49.82
79244;SHT31;68672;42.676;23.356;2023-04-10T08:52:20;12.52;51.02
79244;SHT31;68672;42.676;23.356;2023-04-10T08:54:49;12.59;50.76
79244;SHT31;68672;42.676;23.356;2023-04-10T08:57:17;12.66;50.31
79244;SHT31;68672;42.676;23.356;2023-04-10T08:59:45;12.70;49.61
79244;SHT31;68672;42.676;23.356;2023-04-10T09:02:10;12.73;49.72
79244;SHT31;68672;42.676;23.356;2023-04-10T09:04:36;12.80;49.45
79244;SHT31;68672;42.676;23.356;2023-04-10T09:07:01;12.75;49.63
79244;SHT31;68672;42.676;23.356;2023-04-10T09:09:30;12.72;49.16
79244;SHT31;68672;42.676;23.356;2023-04-10T09:12:00;12.75;48.08
79244;SHT31;68672;42.676;23.356;2023-04-10T09:14:34;12.77;47.34
79244;SHT31;68672;42.676;23.356;2023-04-10T09:17:20;12.83;46.43
79244;SHT31;68672;42.676;23.356;2023-04-10T09:19:51;12.89;46.69
79244;SHT31;68672;42.676;23.356;2023-04-10T09:22:33;12.97;45.97
79244;SHT31;68672;42.676;23.356;2023-04-10T09:25:00;12.90;45.95
79244;SHT31;68672;42.676;23.356;2023-04-10T09:27:34;12.80;46.27
79244;SHT31;68672;42.676;23.356;2023-04-10T09:30:05;12.86;46.57
79244;SHT31;68672;42.676;23.356;2023-04-10T09:35:01;12.87;46.60
79244;SHT31;68672;42.676;23.356;2023-04-10T09:37:33;12.83;46.58
79244;SHT31;68672;42.676;23.356;2023-04-10T09:40:00;12.87;46.97
79244;SHT31;68672;42.676;23.356;2023-04-10T09:42:33;12.83;46.89
79244;SHT31;68672;42.676;23.356;2023-04-10T09:45:00;12.84;46.54
79244;SHT31;68672;42.676;23.356;2023-04-10T09:47:26;12.90;46.09
79244;SHT31;68672;42.676;23.356;2023-04-10T09:49:54;12.94;45.84
79244;SHT31;68672;42.676;23.356;2023-04-10T09:52:30;12.99;45.77
79244;SHT31;68672;42.676;23.356;2023-04-10T09:55:06;12.94;45.18
79244;SHT31;68672;42.676;23.356;2023-04-10T09:57:34;12.89;45.48
79244;SHT31;68672;42.676;23.356;2023-04-10T10:00:02;12.94;45.64
79244;SHT31;68672;42.676;23.356;2023-04-10T10:02:36;13.04;45.05
79244;SHT31;68672;42.676;23.356;2023-04-10T10:05:03;13.18;45.20
79244;SHT31;68672;42.676;23.356;2023-04-10T10:07:30;13.28;44.60
79244;SHT31;68672;42.676;23.356;2023-04-10T10:09:56;13.37;44.31
79244;SHT31;68672;42.676;23.356;2023-04-10T10:18:06;13.30;44.10
79244;SHT31;68672;42.676;23.356;2023-04-10T10:20:34;13.14;44.45
79244;SHT31;68672;42.676;23.356;2023-04-10T10:23:06;12.97;45.01
79244;SHT31;68672;42.676;23.356;2023-04-10T10:25:34;13.00;45.13
79244;SHT31;68672;42.676;23.356;2023-04-10T10:28:02;13.03;45.04
79244;SHT31;68672;42.676;23.356;2023-04-10T10:30:31;13.11;44.97
79244;SHT31;68672;42.676;23.356;2023-04-10T10:32:58;13.22;44.88
79244;SHT31;68672;42.676;23.356;2023-04-10T10:35:25;13.25;45.02
79244;SHT31;68672;42.676;23.356;2023-04-10T10:37:51;13.38;44.70
79244;SHT31;68672;42.676;23.356;2023-04-10T10:40:26;13.54;44.38
79244;SHT31;68672;42.676;23.356;2023-04-10T10:42:59;13.65;43.84
79244;SHT31;68672;42.676;23.356;2023-04-10T10:45:40;13.79;43.82
79244;SHT31;68672;42.676;23.356;2023-04-10T10:48:06;13.92;43.22
79244;SHT31;68672;42.676;23.356;2023-04-10T10:50:58;13.90;43.38
79244;SHT31;68672;42.676;23.356;2023-04-10T10:53:49;13.93;43.60
79244;SHT31;68672;42.676;23.356;2023-04-10T10:58:52;14.16;43.37
79244;SHT31;68672;42.676;23.356;2023-04-10T11:01:20;14.42;42.43
79244;SHT31;68672;42.676;23.356;2023-04-10T11:03:46;15.26;41.19
79244;SHT31;68672;42.676;23.356;2023-04-10T11:06:47;16.32;39.13
79244;SHT31;68672;42.676;23.356;2023-04-10T11:09:07;18.30;36.30
79244;SHT31;68672;42.676;23.356;2023-04-10T11:11:56;20.28;32.25
79244;SHT31;68672;42.676;23.356;2023-04-10T11:14:23;21.78;29.88
79244;SHT31;68672;42.676;23.356;2023-04-10T11:16:51;22.73;29.07
79244;SHT31;68672;42.676;23.356;2023-04-10T11:19:16;22.29;28.41
79244;SHT31;68672;42.676;23.356;2023-04-10T11:24:29;20.38;30.57
79244;SHT31;68672;42.676;23.356;2023-04-10T11:26:54;19.45;32.23
79244;SHT31;68672;42.676;23.356;2023-04-10T11:31:56;17.92;35.39
79244;SHT31;68672;42.676;23.356;2023-04-10T11:34:25;17.44;36.56
79244;SHT31;68672;42.676;23.356;2023-04-10T11:36:54;17.13;36.16
79244;SHT31;68672;42.676;23.356;2023-04-10T11:39:20;17.82;35.53
79244;SHT31;68672;42.676;23.356;2023-04-10T11:41:52;18.38;34.42
79244;SHT31;68672;42.676;23.356;2023-04-10T11:46:49;18.89;33.79
79244;SHT31;68672;42.676;23.356;2023-04-10T11:49:19;18.57;34.11
79244;SHT31;68672;42.676;23.356;2023-04-10T11:51:47;18.16;33.79
79244;SHT31;68672;42.676;23.356;2023-04-10T11:54:28;17.85;34.84
79244;SHT31;68672;42.676;23.356;2023-04-10T11:57:00;17.51;35.30
79244;SHT31;68672;42.676;23.356;2023-04-10T11:59:26;17.18;35.51
79244;SHT31;68672;42.676;23.356;2023-04-10T12:02:05;16.77;35.84
79244;SHT31;68672;42.676;23.356;2023-04-10T12:04:32;16.52;36.14
79244;SHT31;68672;42.676;23.356;2023-04-10T12:06:58;16.22;36.61
79244;SHT31;68672;42.676;23.356;2023-04-10T12:09:23;15.94;37.38
79244;SHT31;68672;42.676;23.356;2023-04-10T12:11:49;15.77;38.15
79244;SHT31;68672;42.676;23.356;2023-04-10T12:14:16;15.59;39.10
79244;SHT31;68672;42.676;23.356;2023-04-10T12:16:42;15.33;41.09
79244;SHT31;68672;42.676;23.356;2023-04-10T12:19:08;14.99;43.95
79244;SHT31;68672;42.676;23.356;2023-04-10T12:21:37;14.64;45.97
79244;SHT31;68672;42.676;23.356;2023-04-10T12:24:02;14.31;47.85
79244;SHT31;68672;42.676;23.356;2023-04-10T12:26:28;14.05;49.64
79244;SHT31;68672;42.676;23.356;2023-04-10T12:28:55;13.78;50.58
79244;SHT31;68672;42.676;23.356;2023-04-10T12:33:57;13.31;52.69
79244;SHT31;68672;42.676;23.356;2023-04-10T12:36:24;13.10;53.50
79244;SHT31;68672;42.676;23.356;2023-04-10T12:38:53;13.01;54.82
79244;SHT31;68672;42.676;23.356;2023-04-10T12:41:24;12.73;55.41
79244;SHT31;68672;42.676;23.356;2023-04-10T12:43:51;12.59;55.78
79244;SHT31;68672;42.676;23.356;2023-04-10T12:46:27;12.57;53.18
79244;SHT31;68672;42.676;23.356;2023-04-10T12:48:54;12.57;51.15
79244;SHT31;68672;42.676;23.356;2023-04-10T12:51:40;12.72;50.93
79244;SHT31;68672;42.676;23.356;2023-04-10T12:54:05;12.94;50.75
79244;SHT31;68672;42.676;23.356;2023-04-10T12:56:41;13.21;51.35
79244;SHT31;68672;42.676;23.356;2023-04-10T12:59:07;13.55;51.34
79244;SHT31;68672;42.676;23.356;2023-04-10T13:01:32;14.03;49.75
79244;SHT31;68672;42.676;23.356;2023-04-10T13:03:58;14.56;48.48
79244;SHT31;68672;42.676;23.356;2023-04-10T13:06:23;14.85;47.77
79244;SHT31;68672;42.676;23.356;2023-04-10T13:08:48;15.39;46.06
79244;SHT31;68672;42.676;23.356;2023-04-10T13:11:16;16.25;44.95
79244;SHT31;68672;42.676;23.356;2023-04-10T13:13:42;17.18;42.61
79244;SHT31;68672;42.676;23.356;2023-04-10T13:16:08;17.89;40.70
79244;SHT31;68672;42.676;23.356;2023-04-10T13:18:37;18.43;40.12
79244;SHT31;68672;42.676;23.356;2023-04-10T13:21:03;18.99;39.48
79244;SHT31;68672;42.676;23.356;2023-04-10T13:23:28;19.59;37.56
79244;SHT31;68672;42.676;23.356;2023-04-10T13:25:54;20.11;36.21
79244;SHT31;68672;42.676;23.356;2023-04-10T13:28:21;20.64;35.23
79244;SHT31;68672;42.676;23.356;2023-04-10T13:30:47;21.20;33.95
79244;SHT31;68672;42.676;23.356;2023-04-10T13:33:12;21.75;33.10
79244;SHT31;68672;42.676;23.356;2023-04-10T13:35:38;21.34;33.21
79244;SHT31;68672;42.676;23.356;2023-04-10T13:38:04;21.68;32.08
79244;SHT31;68672;42.676;23.356;2023-04-10T13:40:30;21.62;32.42
79244;SHT31;68672;42.676;23.356;2023-04-10T13:42:55;22.32;31.08
79244;SHT31;68672;42.676;23.356;2023-04-10T13:45:21;22.75;30.39
79244;SHT31;68672;42.676;23.356;2023-04-10T13:47:46;23.08;30.64
79244;SHT31;68672;42.676;23.356;2023-04-10T13:50:12;23.45;30.22
79244;SHT31;68672;42.676;23.356;2023-04-10T13:52:37;23.65;29.67
79244;SHT31;68672;42.676;23.356;2023-04-10T13:55:03;23.99;28.45
79244;SHT31;68672;42.676;23.356;2023-04-10T13:57:29;24.47;27.65
79244;SHT31;68672;42.676;23.356;2023-04-10T13:59:57;24.79;27.00
79244;SHT31;68672;42.676;23.356;2023-04-10T14:02:23;24.68;26.79
79244;SHT31;68672;42.676;23.356;2023-04-10T14:04:48;24.18;27.42
79244;SHT31;68672;42.676;23.356;2023-04-10T14:07:15;24.03;27.74
79244;SHT31;68672;42.676;23.356;2023-04-10T14:09:41;23.81;27.93
79244;SHT31;68672;42.676;23.356;2023-04-10T14:12:06;23.43;28.50
79244;SHT31;68672;42.676;23.356;2023-04-10T14:14:32;22.49;29.74
79244;SHT31;68672;42.676;23.356;2023-04-10T14:16:57;21.50;31.42
79244;SHT31;68672;42.676;23.356;2023-04-10T14:19:23;20.85;31.98
79244;SHT31;68672;42.676;23.356;2023-04-10T14:21:51;20.10;33.12
79244;SHT31;68672;42.676;23.356;2023-04-10T14:24:17;19.23;34.59
79244;SHT31;68672;42.676;23.356;2023-04-10T14:26:42;18.41;35.44
79244;SHT31;68672;42.676;23.356;2023-04-10T14:29:10;17.72;36.52
79244;SHT31;68672;42.676;23.356;2023-04-10T14:31:35;17.10;36.63
79244;SHT31;68672;42.676;23.356;2023-04-10T14:34:01;16.60;37.94
79244;SHT31;68672;42.676;23.356;2023-04-10T14:36:26;16.11;38.11
79244;SHT31;68672;42.676;23.356;2023-04-10T14:38:52;15.74;38.93
79244;SHT31;68672;42.676;23.356;2023-04-10T14:41:17;15.42;39.63
79244;SHT31;68672;42.676;23.356;2023-04-10T14:43:46;15.11;40.41
79244;SHT31;68672;42.676;23.356;2023-04-10T14:46:11;14.81;41.39
79244;SHT31;68672;42.676;23.356;2023-04-10T14:48:37;14.68;41.98
79244;SHT31;68672;42.676;23.356;2023-04-10T14:51:02;14.54;42.95
79244;SHT31;68672;42.676;23.356;2023-04-10T14:53:29;14.34;44.30
79244;SHT31;68672;42.676;23.356;2023-04-10T14:55:57;14.13;45.80
79244;SHT31;68672;42.676;23.356;2023-04-10T14:58:31;13.89;46.49
79244;SHT31;68672;42.676;23.356;2023-04-10T15:00:57;13.81;46.74
79244;SHT31;68672;42.676;23.356;2023-04-10T15:03:22;13.76;46.56
79244;SHT31;68672;42.676;23.356;2023-04-10T15:05:48;13.75;46.51
79244;SHT31;68672;42.676;23.356;2023-04-10T15:08:13;13.76;47.19
79244;SHT31;68672;42.676;23.356;2023-04-10T15:10:39;13.63;47.01
79244;SHT31;68672;42.676;23.356;2023-04-10T15:13:04;13.58;47.23
79244;SHT31;68672;42.676;23.356;2023-04-10T15:15:30;13.66;47.12
79244;SHT31;68672;42.676;23.356;2023-04-10T15:17:55;13.59;47.22
79244;SHT31;68672;42.676;23.356;2023-04-10T15:20:23;13.57;48.21
79244;SHT31;68672;42.676;23.356;2023-04-10T15:22:49;13.51;47.54
79244;SHT31;68672;42.676;23.356;2023-04-10T15:25:14;13.40;47.43
79244;SHT31;68672;42.676;23.356;2023-04-10T15:27:40;13.40;47.16
79244;SHT31;68672;42.676;23.356;2023-04-10T15:30:06;13.32;47.20
79244;SHT31;68672;42.676;23.356;2023-04-10T15:32:31;13.37;47.22
79244;SHT31;68672;42.676;23.356;2023-04-10T15:34:57;13.37;46.79
79244;SHT31;68672;42.676;23.356;2023-04-10T15:37:22;13.41;46.69
79244;SHT31;68672;42.676;23.356;2023-04-10T15:39:49;13.45;46.24
79244;SHT31;68672;42.676;23.356;2023-04-10T15:42:15;13.55;46.03
79244;SHT31;68672;42.676;23.356;2023-04-10T15:44:44;13.65;45.70
79244;SHT31;68672;42.676;23.356;2023-04-10T15:47:09;13.82;45.34
79244;SHT31;68672;42.676;23.356;2023-04-10T15:49:35;13.90;44.41
79244;SHT31;68672;42.676;23.356;2023-04-10T15:52:00;13.89;44.51
79244;SHT31;68672;42.676;23.356;2023-04-10T15:54:26;13.82;44.50
79244;SHT31;68672;42.676;23.356;2023-04-10T15:56:51;13.89;44.55
79244;SHT31;68672;42.676;23.356;2023-04-10T15:59:17;13.93;44.32
79244;SHT31;68672;42.676;23.356;2023-04-10T16:01:49;13.98;44.20